Time;durP1;ratioP1;P1;durP2;ratioP2;P2;SDS_P1;SDS_P2;PMS_P1;PMS_P2;Temp;Humidity;BMP_temperature;BMP_pressure;BME280_temperature;BME280_humidity;BME280_pressure;Samples;Min_cycle;Max_cycle;Signal;HPM_P1;HPM_P2
2022/01/14 00:01:45;;;;;;;172.40;33.63;;;3.60;99.90;;;;;;5093297;28;20464;-79
2022/01/14 00:04:11;;;;;;;271.27;38.30;;;3.40;99.90;;;;;;5093186;28;20384;-79
2022/01/14 00:06:37;;;;;;;223.48;34.45;;;3.40;99.90;;;;;;5093055;28;20539;-79
2022/01/14 00:09:09;;;;;;;184.43;33.15;;;3.30;99.90;;;;;;5092978;28;20034;-79
2022/01/14 00:11:47;;;;;;;218.73;38.22;;;3.20;99.90;;;;;;5092999;28;20032;-78
2022/01/14 00:16:43;;;;;;;388.10;39.90;;;3.40;99.90;;;;;;5091770;28;20047;-78
2022/01/14 00:19:09;;;;;;;259.30;42.53;;;3.50;99.90;;;;;;5092939;28;20051;-79
2022/01/14 00:21:37;;;;;;;178.10;32.80;;;3.40;99.90;;;;;;5092905;28;20036;-76
2022/01/14 00:24:10;;;;;;;341.17;39.20;;;3.20;99.90;;;;;;5091418;28;20020;-79
2022/01/14 00:32:13;;;;;;;279.08;34.30;;;3.20;99.90;;;;;;5099594;28;20039;-76
2022/01/14 00:34:39;;;;;;;265.42;34.45;;;3.10;99.90;;;;;;5099505;28;20024;-79
2022/01/14 00:37:04;;;;;;;311.17;37.15;;;3.00;99.90;;;;;;5099680;28;20465;-79
2022/01/14 00:39:30;;;;;;;267.65;38.58;;;3.00;99.90;;;;;;5099353;28;20028;-79
2022/01/14 00:41:56;;;;;;;287.40;36.65;;;3.10;99.90;;;;;;5099610;28;20047;-78
2022/01/14 00:44:22;;;;;;;253.85;39.17;;;3.10;99.90;;;;;;5099432;28;20102;-79
2022/01/14 00:46:49;;;;;;;285.40;39.00;;;3.00;99.90;;;;;;5099583;28;20123;-79
2022/01/14 00:49:17;;;;;;;415.45;44.20;;;3.00;99.90;;;;;;5099440;28;20056;-79
2022/01/14 00:51:43;;;;;;;163.52;30.65;;;3.00;99.90;;;;;;5099631;28;20073;-79
2022/01/14 00:54:10;;;;;;;222.38;35.63;;;3.00;99.90;;;;;;5098975;28;20067;-78
2022/01/14 00:59:15;;;;;;;330.30;40.55;;;2.90;99.90;;;;;;5099389;28;20074;-78
2022/01/14 01:01:52;;;;;;;259.02;34.13;;;2.80;99.90;;;;;;5099541;28;20035;-79
2022/01/14 01:04:26;;;;;;;266.30;37.90;;;2.70;99.90;;;;;;5099262;28;20093;-78
2022/01/14 01:06:52;;;;;;;335.13;38.65;;;2.80;99.90;;;;;;5099254;28;20046;-79
2022/01/14 01:09:20;;;;;;;187.82;34.17;;;2.70;99.90;;;;;;5097698;28;20028;-79
2022/01/14 01:11:52;;;;;;;184.38;34.60;;;2.60;99.90;;;;;;5098089;28;20043;-79
2022/01/14 01:14:28;;;;;;;231.45;33.88;;;2.60;99.90;;;;;;5098033;28;20480;-79
2022/01/14 01:16:54;;;;;;;187.10;34.22;;;2.60;99.90;;;;;;5099388;28;20020;-79
2022/01/14 01:19:20;;;;;;;159.32;34.70;;;2.70;99.90;;;;;;5099138;28;20349;-79
2022/01/14 01:21:46;;;;;;;210.65;32.90;;;2.70;99.90;;;;;;5099133;28;20040;-79
2022/01/14 01:24:14;;;;;;;344.23;41.90;;;2.60;99.90;;;;;;5098963;28;20499;-79
2022/01/14 01:26:41;;;;;;;370.83;40.30;;;2.80;99.90;;;;;;5097939;28;20063;-79
2022/01/14 01:31:40;;;;;;;350.80;44.13;;;2.80;99.90;;;;;;5099329;28;20429;-77
2022/01/14 01:34:13;;;;;;;297.63;41.35;;;2.90;99.90;;;;;;5099064;28;20103;-79
2022/01/14 01:36:42;;;;;;;337.73;44.58;;;2.90;99.90;;;;;;5098693;28;20028;-78
2022/01/14 01:39:10;;;;;;;227.25;36.97;;;2.90;99.90;;;;;;5096909;28;20031;-79
2022/01/14 01:41:38;;;;;;;320.90;43.53;;;2.90;99.90;;;;;;5095900;28;20059;-78
2022/01/14 01:44:06;;;;;;;258.58;42.05;;;2.90;99.90;;;;;;5094506;28;20024;-79
2022/01/14 01:46:34;;;;;;;293.17;41.75;;;2.90;99.90;;;;;;5095804;28;20036;-79
2022/01/14 01:49:00;;;;;;;234.40;39.30;;;2.90;99.90;;;;;;5095639;28;20449;-79
2022/01/14 01:51:26;;;;;;;360.88;43.78;;;2.90;99.90;;;;;;5095402;28;20044;-79
2022/01/14 01:53:51;;;;;;;148.32;34.15;;;3.10;99.90;;;;;;5095740;28;20016;-79
2022/01/14 01:56:17;;;;;;;252.38;39.35;;;3.20;99.90;;;;;;5095704;28;20488;-79
2022/01/14 01:58:43;;;;;;;302.45;40.00;;;3.00;99.90;;;;;;5095661;28;20028;-78
2022/01/14 02:01:10;;;;;;;231.80;38.70;;;3.00;99.90;;;;;;5094180;28;20035;-79
2022/01/14 02:03:38;;;;;;;266.50;42.33;;;3.10;99.90;;;;;;5095538;28;20419;-79
2022/01/14 02:06:04;;;;;;;170.00;33.60;;;3.00;99.90;;;;;;5094962;28;20036;-79
2022/01/14 02:08:30;;;;;;;191.50;32.03;;;2.80;99.90;;;;;;5096146;28;20024;-79
2022/01/14 02:10:56;;;;;;;258.08;42.35;;;2.40;99.90;;;;;;5095518;28;20407;-76
2022/01/14 02:13:23;;;;;;;204.93;39.40;;;2.40;99.90;;;;;;5095563;28;20100;-80
2022/01/14 02:16:11;;;;;;;156.25;32.78;;;2.50;99.90;;;;;;5095231;28;20115;-78
2022/01/14 02:18:47;;;;;;;267.75;38.47;;;2.50;99.90;;;;;;5095197;28;20097;-80
2022/01/14 02:26:50;;;;;;;149.68;32.85;;;2.60;99.90;;;;;;5094632;28;20040;-79
2022/01/14 02:29:16;;;;;;;249.18;39.42;;;2.50;99.90;;;;;;5095027;28;20388;-79
2022/01/14 02:31:43;;;;;;;221.07;34.90;;;2.60;99.90;;;;;;5095061;28;20439;-79
2022/01/14 02:34:10;;;;;;;229.07;39.58;;;2.50;99.90;;;;;;5094839;28;20526;-79
2022/01/14 02:36:36;;;;;;;193.02;33.92;;;2.40;99.90;;;;;;5094579;28;20453;-79
2022/01/14 02:39:03;;;;;;;117.97;30.77;;;2.30;99.90;;;;;;5094685;28;20094;-79
2022/01/14 02:41:29;;;;;;;222.23;37.55;;;2.30;99.90;;;;;;5094726;28;20032;-79
2022/01/14 02:43:56;;;;;;;144.98;33.38;;;2.30;99.90;;;;;;5094736;28;20035;-79
2022/01/14 02:46:22;;;;;;;176.93;33.95;;;2.20;99.90;;;;;;5094643;28;20028;-79
2022/01/14 02:48:47;;;;;;;160.82;31.55;;;2.30;99.90;;;;;;5094495;28;20380;-77
2022/01/14 02:51:15;;;;;;;225.73;35.65;;;2.00;99.90;;;;;;5092999;28;20460;-79
2022/01/14 02:53:45;;;;;;;130.30;32.25;;;2.10;99.90;;;;;;5095148;28;20422;-79
2022/01/14 02:56:15;;;;;;;184.98;38.38;;;2.00;99.90;;;;;;5093043;28;20052;-80
2022/01/14 02:58:42;;;;;;;258.38;37.80;;;2.10;99.90;;;;;;5094692;28;20421;-77
2022/01/14 03:01:20;;;;;;;159.93;32.58;;;2.10;99.90;;;;;;5094090;28;20392;-78
2022/01/14 03:03:47;;;;;;;125.72;29.38;;;2.20;99.90;;;;;;5090503;28;20036;-78
2022/01/14 03:06:14;;;;;;;119.07;30.08;;;2.10;99.90;;;;;;5073193;28;20119;-77
2022/01/14 03:08:41;;;;;;;99.32;30.20;;;2.10;99.90;;;;;;5073918;28;20085;-79
2022/01/14 03:11:14;;;;;;;111.88;29.13;;;2.10;99.90;;;;;;5094175;28;20050;-79
2022/01/14 03:13:40;;;;;;;84.35;29.17;;;2.00;99.90;;;;;;5094128;28;20032;-79
2022/01/14 03:16:07;;;;;;;98.80;28.30;;;2.10;99.90;;;;;;5094060;28;20106;-78
2022/01/14 03:18:42;;;;;;;86.82;28.25;;;2.10;99.90;;;;;;5092504;28;20369;-79
2022/01/14 03:21:12;;;;;;;85.93;27.25;;;2.20;99.90;;;;;;5092627;28;20484;-80
2022/01/14 03:23:48;;;;;;;142.98;28.95;;;1.90;99.90;;;;;;5075687;28;20089;-79
2022/01/14 03:26:19;;;;;;;80.60;25.55;;;1.90;99.90;;;;;;5093840;28;20040;-79
2022/01/14 03:28:46;;;;;;;88.32;26.20;;;1.80;99.90;;;;;;5092823;28;20016;-79
2022/01/14 03:31:12;;;;;;;128.77;29.88;;;1.60;99.90;;;;;;5093753;28;20063;-79
2022/01/14 03:33:39;;;;;;;70.53;25.15;;;1.80;99.90;;;;;;5093269;28;20092;-79
2022/01/14 03:36:06;;;;;;;140.70;28.67;;;1.70;99.90;;;;;;5092572;28;20028;-79
2022/01/14 03:38:32;;;;;;;84.25;27.48;;;1.90;99.90;;;;;;5093790;28;20028;-78
2022/01/14 03:40:58;;;;;;;65.68;24.55;;;1.90;99.90;;;;;;5093538;28;20032;-79
2022/01/14 03:43:24;;;;;;;75.88;25.60;;;1.80;99.90;;;;;;5092428;28;20036;-78
2022/01/14 03:45:50;;;;;;;115.72;26.77;;;1.90;99.90;;;;;;5093361;28;20477;-78
2022/01/14 03:48:18;;;;;;;68.38;26.73;;;1.90;99.90;;;;;;5093262;28;20099;-79
2022/01/14 03:50:44;;;;;;;87.97;27.55;;;1.90;99.90;;;;;;5094086;28;20475;-79
2022/01/14 03:53:12;;;;;;;64.18;26.10;;;1.80;99.90;;;;;;5093389;28;20020;-78
2022/01/14 03:55:43;;;;;;;105.15;28.27;;;1.70;99.90;;;;;;5093520;28;20032;-79
2022/01/14 03:58:09;;;;;;;61.90;26.63;;;1.90;99.90;;;;;;5093166;28;20035;-79
2022/01/14 04:00:36;;;;;;;88.10;27.73;;;1.90;99.90;;;;;;5093571;28;20505;-79
2022/01/14 04:03:02;;;;;;;96.18;26.67;;;2.00;99.90;;;;;;5092410;28;20043;-78
2022/01/14 04:05:28;;;;;;;117.68;25.90;;;2.00;99.90;;;;;;5093384;28;20028;-79
2022/01/14 04:07:53;;;;;;;184.32;33.25;;;1.80;99.90;;;;;;5093017;28;20039;-79
2022/01/14 04:10:21;;;;;;;204.15;32.97;;;1.80;99.90;;;;;;5093082;28;20112;-79
2022/01/14 04:13:12;;;;;;;185.52;31.38;;;1.90;99.90;;;;;;5093084;28;20089;-79
2022/01/14 04:15:38;;;;;;;115.10;28.80;;;2.10;99.90;;;;;;5093051;28;20036;-79
2022/01/14 04:18:13;;;;;;;207.07;36.20;;;1.90;99.90;;;;;;5091348;28;20040;-80
2022/01/14 04:20:40;;;;;;;164.23;30.33;;;1.90;99.90;;;;;;5093003;28;20036;-78
2022/01/14 04:23:07;;;;;;;150.25;32.38;;;1.70;99.90;;;;;;5092943;28;20024;-78
2022/01/14 04:25:34;;;;;;;204.55;34.60;;;1.80;99.90;;;;;;5092907;28;20443;-78
2022/01/14 04:28:01;;;;;;;213.75;31.65;;;1.80;99.90;;;;;;5091574;28;20028;-79
2022/01/14 04:30:27;;;;;;;140.07;34.35;;;1.80;99.90;;;;;;5092981;28;20028;-79
2022/01/14 04:32:52;;;;;;;132.45;29.20;;;1.60;99.90;;;;;;5092665;28;20032;-78
2022/01/14 04:35:18;;;;;;;153.43;30.95;;;1.70;99.90;;;;;;5092908;28;20032;-79
2022/01/14 04:37:44;;;;;;;132.40;27.30;;;1.60;99.90;;;;;;5092986;28;20119;-77
2022/01/14 04:40:12;;;;;;;147.65;32.38;;;1.50;99.90;;;;;;5091563;28;20032;-78
2022/01/14 04:42:41;;;;;;;172.18;37.00;;;1.60;99.90;;;;;;5093081;28;20449;-79
2022/01/14 04:45:11;;;;;;;301.92;41.97;;;1.80;99.90;;;;;;5091069;28;20028;-79
2022/01/14 04:47:46;;;;;;;162.48;34.95;;;2.00;99.90;;;;;;5087607;28;20476;-79
2022/01/14 04:50:15;;;;;;;232.35;35.20;;;2.10;99.90;;;;;;5084146;28;20024;-79
2022/01/14 04:52:42;;;;;;;161.38;31.65;;;2.10;99.90;;;;;;5092607;28;20345;-78
2022/01/14 04:55:10;;;;;;;144.02;30.00;;;2.00;99.90;;;;;;5091218;28;20047;-79
2022/01/14 04:57:37;;;;;;;287.77;36.88;;;2.10;99.90;;;;;;5092827;28;20423;-78
2022/01/14 05:00:06;;;;;;;235.32;35.67;;;2.10;99.90;;;;;;5092065;28;20036;-79
2022/01/14 05:02:32;;;;;;;192.35;32.60;;;2.00;99.90;;;;;;5092391;28;20021;-79
2022/01/14 05:04:59;;;;;;;181.93;30.05;;;2.00;99.90;;;;;;5092100;28;20464;-79
2022/01/14 05:07:26;;;;;;;275.30;36.33;;;1.90;99.90;;;;;;5091306;28;20081;-80
2022/01/14 05:10:08;;;;;;;176.93;31.20;;;1.90;99.90;;;;;;5092157;28;20480;-79
2022/01/14 05:12:37;;;;;;;215.07;32.92;;;1.90;99.90;;;;;;5091109;28;20032;-79
2022/01/14 05:15:03;;;;;;;298.30;37.78;;;1.80;99.90;;;;;;5094412;28;20150;-79
2022/01/14 05:17:29;;;;;;;274.38;37.35;;;1.80;99.90;;;;;;5096484;28;20056;-79
2022/01/14 05:19:57;;;;;;;199.55;32.30;;;1.90;99.90;;;;;;5096039;28;20036;-79
2022/01/14 05:22:27;;;;;;;195.57;29.67;;;1.90;99.90;;;;;;5096260;28;20108;-79
2022/01/14 05:24:53;;;;;;;195.00;31.27;;;2.00;99.90;;;;;;5096112;28;20081;-79
2022/01/14 05:27:19;;;;;;;175.45;28.95;;;2.00;99.90;;;;;;5095970;28;20074;-79
2022/01/14 05:29:45;;;;;;;272.52;38.15;;;1.90;99.90;;;;;;5095800;28;20024;-77
2022/01/14 05:32:13;;;;;;;261.25;35.05;;;2.00;99.90;;;;;;5095944;28;20032;-79
2022/01/14 05:34:41;;;;;;;158.30;29.52;;;2.20;99.90;;;;;;5095978;28;20060;-79
2022/01/14 05:37:07;;;;;;;157.07;28.63;;;1.90;99.90;;;;;;5096017;28;20483;-78
2022/01/14 05:39:34;;;;;;;257.02;35.63;;;1.80;99.90;;;;;;5095944;28;20067;-79
2022/01/14 05:42:01;;;;;;;235.02;34.47;;;1.60;99.90;;;;;;5095813;28;20020;-77
2022/01/14 05:44:28;;;;;;;244.65;32.83;;;1.50;99.90;;;;;;5095621;28;20032;-78
2022/01/14 05:46:55;;;;;;;213.75;32.92;;;1.60;99.90;;;;;;5095646;28;20044;-79
2022/01/14 05:49:22;;;;;;;295.98;41.28;;;1.70;99.90;;;;;;5095700;28;20016;-79
2022/01/14 05:51:48;;;;;;;200.18;34.58;;;1.60;99.90;;;;;;5095586;28;20044;-78
2022/01/14 05:54:15;;;;;;;287.15;37.53;;;1.60;99.90;;;;;;5095701;28;20020;-79
2022/01/14 05:56:40;;;;;;;272.42;36.35;;;1.50;99.90;;;;;;5094454;28;20036;-78
2022/01/14 05:59:06;;;;;;;192.70;35.25;;;1.50;99.90;;;;;;5095191;28;20024;-76
2022/01/14 06:01:32;;;;;;;192.18;31.52;;;1.40;99.90;;;;;;5095466;28;20489;-77
2022/01/14 06:03:59;;;;;;;322.55;38.85;;;1.30;99.90;;;;;;5095626;28;20380;-77
2022/01/14 06:06:24;;;;;;;201.57;32.58;;;1.40;99.90;;;;;;5095192;28;20051;-78
2022/01/14 06:08:51;;;;;;;189.65;36.70;;;1.50;99.90;;;;;;5095239;28;20029;-78
2022/01/14 06:11:18;;;;;;;174.10;34.50;;;1.50;99.90;;;;;;5095293;28;20032;-78
2022/01/14 06:13:44;;;;;;;192.93;34.90;;;1.50;99.90;;;;;;5093926;28;20070;-79
2022/01/14 06:16:10;;;;;;;251.13;36.22;;;1.40;99.90;;;;;;5095146;28;20036;-79
2022/01/14 06:18:36;;;;;;;154.07;28.60;;;1.50;99.90;;;;;;5095229;28;20024;-77
2022/01/14 06:21:02;;;;;;;202.05;34.08;;;1.60;99.90;;;;;;5095008;28;20036;-78
2022/01/14 06:23:28;;;;;;;152.15;32.65;;;1.60;99.90;;;;;;5094792;28;20468;-78
2022/01/14 06:25:54;;;;;;;246.10;38.30;;;1.60;99.90;;;;;;5094679;28;20024;-77
2022/01/14 06:28:20;;;;;;;168.77;33.92;;;1.60;99.90;;;;;;5093609;28;20467;-78
2022/01/14 06:30:45;;;;;;;114.75;31.30;;;1.60;99.90;;;;;;5094859;28;20040;-78
2022/01/14 06:33:11;;;;;;;193.10;35.75;;;1.70;99.90;;;;;;5095005;28;20110;-78
2022/01/14 06:35:37;;;;;;;227.00;37.00;;;1.60;99.90;;;;;;5094775;28;20040;-79
2022/01/14 06:38:03;;;;;;;124.93;30.92;;;1.80;99.90;;;;;;5094868;28;20032;-78
2022/01/14 06:40:29;;;;;;;231.77;35.50;;;1.70;99.90;;;;;;5094569;28;20040;-78
2022/01/14 06:42:55;;;;;;;260.13;37.70;;;1.60;99.90;;;;;;5094424;28;20095;-77
2022/01/14 06:45:22;;;;;;;209.55;38.03;;;1.60;99.90;;;;;;5094643;28;20119;-78
2022/01/14 06:47:48;;;;;;;271.13;42.47;;;1.60;99.90;;;;;;5094466;28;20032;-77
2022/01/14 06:50:13;;;;;;;262.33;40.28;;;1.60;99.90;;;;;;5094499;28;20016;-78
2022/01/14 06:52:39;;;;;;;156.02;34.88;;;1.70;99.90;;;;;;5094479;28;20081;-78
2022/01/14 06:55:06;;;;;;;138.43;33.22;;;1.80;99.90;;;;;;5094604;28;20102;-77
2022/01/14 06:57:32;;;;;;;136.93;32.47;;;1.80;99.90;;;;;;5093968;28;20055;-77
2022/01/14 06:59:57;;;;;;;176.07;40.47;;;1.60;99.90;;;;;;5094491;28;20066;-78
2022/01/14 07:02:23;;;;;;;121.68;32.97;;;1.80;99.90;;;;;;5094267;28;20025;-78
2022/01/14 07:04:49;;;;;;;157.23;33.63;;;1.80;99.90;;;;;;5094271;28;20461;-79
2022/01/14 07:07:15;;;;;;;132.25;34.00;;;1.90;99.90;;;;;;5094260;28;20039;-79
2022/01/14 07:09:56;;;;;;;234.75;42.53;;;1.90;99.90;;;;;;5094038;28;20057;-80
2022/01/14 07:12:31;;;;;;;148.70;26.93;;;1.80;99.90;;;;;;5092364;28;20527;-80
2022/01/14 07:14:57;;;;;;;145.63;34.20;;;1.80;99.90;;;;;;5094146;28;20286;-79
2022/01/14 07:17:25;;;;;;;259.35;38.30;;;1.80;99.90;;;;;;5094036;28;20020;-79
2022/01/14 07:19:53;;;;;;;249.85;45.08;;;1.70;99.90;;;;;;5094022;28;20539;-78
2022/01/14 07:22:21;;;;;;;255.27;42.55;;;1.70;99.90;;;;;;5093560;28;20093;-79
2022/01/14 07:24:47;;;;;;;104.07;32.97;;;1.70;99.90;;;;;;5092462;28;20028;-78
2022/01/14 07:27:14;;;;;;;280.70;43.95;;;1.50;99.90;;;;;;5092659;28;20043;-77
2022/01/14 07:29:40;;;;;;;266.15;43.17;;;1.50;99.90;;;;;;5095668;28;20008;-80
2022/01/14 07:32:06;;;;;;;215.27;44.70;;;1.60;99.90;;;;;;5093456;28;20129;-80
2022/01/14 07:34:32;;;;;;;226.63;40.90;;;1.80;99.90;;;;;;5093737;28;20020;-79
2022/01/14 07:36:58;;;;;;;300.80;49.67;;;1.60;99.90;;;;;;5093261;28;20504;-77
2022/01/14 07:39:24;;;;;;;148.50;39.35;;;1.90;99.90;;;;;;5093426;28;20107;-79
2022/01/14 07:41:51;;;;;;;188.25;41.83;;;1.70;99.90;;;;;;5093472;28;20077;-80
2022/01/14 07:44:17;;;;;;;132.55;38.65;;;1.70;99.90;;;;;;5091971;28;20495;-79
2022/01/14 07:46:43;;;;;;;188.88;41.38;;;1.60;99.90;;;;;;5092401;28;20166;-78
2022/01/14 07:49:10;;;;;;;212.25;44.03;;;1.50;99.90;;;;;;5092157;28;20362;-80
2022/01/14 07:51:36;;;;;;;187.15;45.28;;;1.60;99.90;;;;;;5092224;28;20503;-81
2022/01/14 07:54:05;;;;;;;203.48;40.22;;;1.80;99.90;;;;;;5093007;28;20095;-80
2022/01/14 07:56:32;;;;;;;208.27;42.70;;;1.70;99.90;;;;;;5093401;28;20042;-79
2022/01/14 07:58:59;;;;;;;170.15;41.72;;;1.70;99.90;;;;;;5093165;28;20137;-80
2022/01/14 08:01:25;;;;;;;154.18;39.90;;;1.80;99.90;;;;;;5093268;28;20034;-78
2022/01/14 08:03:50;;;;;;;109.43;37.15;;;2.00;99.90;;;;;;5093282;28;20016;-78
2022/01/14 08:06:17;;;;;;;145.75;40.08;;;1.80;99.90;;;;;;5093175;28;20089;-80
2022/01/14 08:08:43;;;;;;;165.52;39.50;;;1.80;99.90;;;;;;5092963;28;20039;-78
2022/01/14 08:11:09;;;;;;;149.50;42.53;;;1.90;99.90;;;;;;5093163;28;20484;-78
2022/01/14 08:13:35;;;;;;;168.25;39.97;;;2.00;99.90;;;;;;5093174;28;20024;-77
2022/01/14 08:16:01;;;;;;;254.27;48.83;;;2.10;99.90;;;;;;5093259;28;20372;-78
2022/01/14 08:18:28;;;;;;;206.48;43.65;;;2.20;99.90;;;;;;5091726;28;20055;-78
2022/01/14 08:20:54;;;;;;;307.08;48.08;;;2.20;99.90;;;;;;5093040;28;20040;-77
2022/01/14 08:23:19;;;;;;;236.95;43.35;;;2.40;99.90;;;;;;5092495;28;20028;-77
2022/01/14 08:25:45;;;;;;;275.25;47.03;;;2.40;99.90;;;;;;5093059;28;20115;-77
2022/01/14 08:28:11;;;;;;;114.63;34.78;;;2.20;99.90;;;;;;5093034;28;20388;-78
2022/01/14 08:30:37;;;;;;;150.10;34.28;;;2.20;99.90;;;;;;5086342;28;20032;-78
2022/01/14 08:33:03;;;;;;;126.93;32.95;;;1.90;99.90;;;;;;5075706;28;20047;-78
2022/01/14 08:35:29;;;;;;;136.18;39.53;;;2.00;99.90;;;;;;5072599;28;20063;-78
2022/01/14 08:37:55;;;;;;;123.35;35.38;;;1.90;99.90;;;;;;5072546;28;20032;-77
2022/01/14 08:40:21;;;;;;;135.07;38.58;;;2.10;99.90;;;;;;5072375;28;20035;-78
2022/01/14 08:42:52;;;;;;;157.38;37.22;;;2.20;99.90;;;;;;5072701;28;20477;-76
2022/01/14 08:45:21;;;;;;;104.20;31.53;;;2.30;99.90;;;;;;5072383;28;20118;-74
2022/01/14 08:47:52;;;;;;;127.05;35.30;;;1.90;99.90;;;;;;5073034;28;20352;-77
2022/01/14 08:50:23;;;;;;;127.65;35.75;;;1.90;99.90;;;;;;5075343;28;20036;-77
2022/01/14 08:52:49;;;;;;;104.82;33.20;;;2.00;99.90;;;;;;5075136;28;20040;-78
2022/01/14 08:55:16;;;;;;;133.20;34.08;;;1.90;99.90;;;;;;5076401;28;20025;-78
2022/01/14 08:57:45;;;;;;;105.35;32.47;;;2.00;99.90;;;;;;5076544;28;20040;-78
2022/01/14 09:00:13;;;;;;;115.10;33.42;;;2.00;99.90;;;;;;5076389;28;20419;-78
2022/01/14 09:02:39;;;;;;;113.72;31.95;;;2.20;99.90;;;;;;5076277;28;20060;-78
2022/01/14 09:05:05;;;;;;;153.23;33.70;;;2.10;99.90;;;;;;5076048;28;20121;-78
2022/01/14 09:07:31;;;;;;;131.25;33.80;;;2.30;99.90;;;;;;5076020;28;20040;-78
2022/01/14 09:09:57;;;;;;;227.68;36.22;;;2.50;99.90;;;;;;5086628;28;20023;-78
2022/01/14 09:12:22;;;;;;;106.00;32.60;;;2.70;99.90;;;;;;5096714;28;20067;-78
2022/01/14 09:14:48;;;;;;;134.23;36.35;;;2.70;99.90;;;;;;5096413;28;20024;-78
2022/01/14 09:17:14;;;;;;;155.20;32.85;;;2.80;99.90;;;;;;5095159;28;20373;-79
2022/01/14 09:19:40;;;;;;;96.72;32.38;;;2.70;99.90;;;;;;5096045;28;20036;-79
2022/01/14 09:22:07;;;;;;;72.38;32.42;;;2.70;99.90;;;;;;5094547;28;20036;-79
2022/01/14 09:24:36;;;;;;;92.03;34.38;;;2.60;99.90;;;;;;5094749;28;20040;-79
2022/01/14 09:27:03;;;;;;;87.20;33.55;;;2.80;99.90;;;;;;5095929;28;20113;-79
2022/01/14 09:29:29;;;;;;;84.05;35.22;;;3.10;99.90;;;;;;5096043;28;20530;-79
2022/01/14 09:31:55;;;;;;;83.90;35.08;;;2.80;99.90;;;;;;5095985;28;20032;-79
2022/01/14 09:34:20;;;;;;;94.55;32.40;;;2.90;99.90;;;;;;5096101;28;20469;-78
2022/01/14 09:36:46;;;;;;;99.22;31.65;;;2.90;99.90;;;;;;5095553;28;20081;-76
2022/01/14 09:39:12;;;;;;;106.50;31.38;;;2.80;99.90;;;;;;5095993;28;20027;-79
2022/01/14 09:41:38;;;;;;;99.72;33.72;;;2.80;99.90;;;;;;5095902;28;20437;-79
2022/01/14 09:44:05;;;;;;;67.57;31.80;;;3.20;99.90;;;;;;5095873;28;20024;-79
2022/01/14 09:46:31;;;;;;;82.38;32.78;;;3.20;99.90;;;;;;5094198;28;20476;-79
2022/01/14 09:48:56;;;;;;;60.00;31.30;;;3.20;99.90;;;;;;5094611;28;20103;-79
2022/01/14 09:51:24;;;;;;;63.58;32.67;;;3.10;99.90;;;;;;5095345;28;20119;-80
2022/01/14 09:53:50;;;;;;;57.70;31.88;;;3.30;99.90;;;;;;5096010;28;20043;-79
2022/01/14 09:56:18;;;;;;;54.15;29.80;;;3.60;99.90;;;;;;5094204;28;20064;-78
2022/01/14 09:58:47;;;;;;;46.15;29.00;;;3.30;99.90;;;;;;5095682;28;20032;-79
2022/01/14 10:01:18;;;;;;;46.55;30.15;;;3.90;99.90;;;;;;5094741;28;20036;-79
2022/01/14 10:03:53;;;;;;;48.77;31.17;;;4.50;99.90;;;;;;5095648;28;20387;-78
2022/01/14 10:06:45;;;;;;;42.88;26.35;;;4.50;99.90;;;;;;5094962;28;20730;-79
2022/01/14 10:09:20;;;;;;;41.53;23.60;;;5.00;99.90;;;;;;5095241;28;20028;-79
2022/01/14 10:12:08;;;;;;;34.63;22.70;;;5.60;99.90;;;;;;5095128;28;20114;-79
2022/01/14 10:14:38;;;;;;;35.53;21.88;;;6.20;99.90;;;;;;5078149;28;20052;-78
2022/01/14 10:17:07;;;;;;;33.22;20.73;;;6.40;99.90;;;;;;5095670;28;20024;-79
2022/01/14 10:19:42;;;;;;;33.20;20.33;;;5.80;99.90;;;;;;5093575;28;20115;-79
2022/01/14 10:22:28;;;;;;;32.05;19.25;;;6.50;99.90;;;;;;5094958;28;20048;-79
2022/01/14 10:25:03;;;;;;;26.63;17.35;;;5.70;99.90;;;;;;5095085;28;20381;-79
2022/01/14 10:27:40;;;;;;;31.40;17.92;;;6.00;99.90;;;;;;5094972;28;20078;-77
2022/01/14 10:30:29;;;;;;;28.90;16.73;;;6.40;99.90;;;;;;5094870;28;20042;-80
2022/01/14 10:32:58;;;;;;;30.13;16.20;;;6.30;99.90;;;;;;5094740;28;20487;-80
2022/01/14 10:35:26;;;;;;;25.55;16.65;;;6.40;99.90;;;;;;5093408;28;20038;-80
2022/01/14 10:37:55;;;;;;;23.70;15.23;;;7.20;99.90;;;;;;5094633;28;20039;-79
2022/01/14 10:40:26;;;;;;;23.15;15.63;;;8.50;99.90;;;;;;5094748;28;20032;-79
2022/01/14 10:43:04;;;;;;;26.83;14.90;;;9.50;99.90;;;;;;5094540;28;20028;-80
2022/01/14 10:45:30;;;;;;;24.98;14.25;;;8.90;99.90;;;;;;5094625;28;20044;-79
2022/01/14 10:48:07;;;;;;;21.95;13.32;;;9.90;99.90;;;;;;5093073;28;20028;-80
2022/01/14 10:50:43;;;;;;;26.27;15.05;;;9.90;99.90;;;;;;5094363;28;20160;-79
2022/01/14 10:53:17;;;;;;;24.05;14.82;;;9.30;99.90;;;;;;5094324;28;20459;-79
2022/01/14 10:55:47;;;;;;;31.60;15.45;;;10.10;99.90;;;;;;5094323;28;20036;-80
2022/01/14 10:58:24;;;;;;;25.33;14.25;;;10.10;99.90;;;;;;5094362;28;20099;-79
2022/01/14 11:01:00;;;;;;;26.88;14.40;;;10.00;99.90;;;;;;5094376;28;20020;-80
2022/01/14 11:03:46;;;;;;;29.05;15.30;;;9.60;99.90;;;;;;5092491;28;20542;-80
2022/01/14 11:06:27;;;;;;;27.30;14.90;;;11.10;99.90;;;;;;5092809;28;20040;-80
2022/01/14 11:08:59;;;;;;;28.40;14.18;;;10.50;99.90;;;;;;5094073;28;20028;-80
2022/01/14 11:11:26;;;;;;;27.38;14.77;;;11.60;99.90;;;;;;5093307;28;20032;-79
2022/01/14 11:13:52;;;;;;;30.60;14.45;;;12.30;99.90;;;;;;5093501;28;20028;-78
2022/01/14 11:16:18;;;;;;;22.95;13.23;;;12.80;99.90;;;;;;5094078;28;20024;-80
2022/01/14 11:18:46;;;;;;;23.83;14.02;;;13.80;99.90;;;;;;5093461;28;20437;-81
2022/01/14 11:23:56;;;;;;;23.10;12.25;;;13.80;99.90;;;;;;5093758;28;20038;-78
2022/01/14 11:26:27;;;;;;;26.35;13.90;;;14.00;99.90;;;;;;5093453;28;20036;-79
2022/01/14 11:28:53;;;;;;;26.98;14.20;;;13.60;99.90;;;;;;5093727;28;20039;-80
2022/01/14 11:31:29;;;;;;;21.08;13.77;;;14.40;99.90;;;;;;5093411;28;20043;-80
2022/01/14 11:33:57;;;;;;;21.92;13.48;;;13.00;99.90;;;;;;5093594;28;20036;-77
2022/01/14 11:36:22;;;;;;;21.85;14.13;;;12.90;99.90;;;;;;5093574;28;20024;-80
2022/01/14 11:38:48;;;;;;;23.85;13.80;;;14.30;99.90;;;;;;5093476;28;20111;-79
2022/01/14 11:41:20;;;;;;;23.83;13.80;;;14.50;99.90;;;;;;5093507;28;20036;-78
2022/01/14 11:43:51;;;;;;;22.20;14.15;;;14.70;99.90;;;;;;5093413;28;20077;-78
2022/01/14 11:46:36;;;;;;;22.17;14.35;;;14.60;99.90;;;;;;5091882;28;20032;-78
2022/01/14 11:49:23;;;;;;;26.17;14.30;;;14.70;99.90;;;;;;5093212;28;20036;-79
2022/01/14 11:52:08;;;;;;;25.25;14.75;;;14.00;99.90;;;;;;5093075;28;20028;-78
2022/01/14 11:54:43;;;;;;;23.45;13.60;;;13.80;99.90;;;;;;5093358;28;20122;-76
2022/01/14 11:57:10;;;;;;;28.08;15.23;;;12.70;99.90;;;;;;5091866;28;20032;-78
2022/01/14 11:59:38;;;;;;;26.63;15.13;;;12.70;99.90;;;;;;5093018;28;20036;-77
2022/01/14 12:02:25;;;;;;;22.90;15.75;;;13.20;99.90;;;;;;5092783;28;20024;-78
2022/01/14 12:05:22;;;;;;;29.52;17.27;;;13.00;99.90;;;;;;5092899;28;20047;-78
2022/01/14 12:08:12;;;;;;;31.00;16.65;;;12.60;99.90;;;;;;5087729;28;20523;-79
2022/01/14 12:10:43;;;;;;;30.38;16.10;;;12.00;99.90;;;;;;5091784;28;20052;-78
2022/01/14 12:16:08;;;;;;;30.92;17.80;;;10.10;99.90;;;;;;5091320;28;20070;-78
2022/01/14 12:18:49;;;;;;;33.92;18.98;;;9.10;99.90;;;;;;5091653;28;20035;-79
2022/01/14 12:21:15;;;;;;;34.67;20.70;;;9.00;99.90;;;;;;5092787;28;20419;-78
2022/01/14 12:23:41;;;;;;;38.20;21.52;;;9.20;99.90;;;;;;5092443;28;20112;-76
2022/01/14 12:26:18;;;;;;;45.13;23.13;;;8.80;99.90;;;;;;5092622;28;20039;-74
2022/01/14 12:28:46;;;;;;;39.28;21.35;;;9.20;99.90;;;;;;5093007;28;20031;-76
2022/01/14 12:31:12;;;;;;;46.65;24.38;;;8.60;99.90;;;;;;5092417;28;20447;-77
2022/01/14 12:33:48;;;;;;;37.33;21.02;;;8.10;99.90;;;;;;5092778;28;20031;-75
2022/01/14 12:36:16;;;;;;;38.70;22.27;;;8.00;99.90;;;;;;5092879;28;20463;-78
2022/01/14 12:38:43;;;;;;;43.55;22.05;;;8.00;99.90;;;;;;5092747;28;20091;-79
2022/01/14 12:41:23;;;;;;;44.72;23.55;;;8.30;99.90;;;;;;5092830;28;20028;-78
2022/01/14 12:43:53;;;;;;;47.80;24.27;;;8.20;99.90;;;;;;5074228;28;20488;-78
2022/01/14 12:46:46;;;;;;;41.58;24.02;;;8.30;99.90;;;;;;5092916;28;20036;-79
2022/01/14 12:49:20;;;;;;;42.15;23.00;;;8.30;99.90;;;;;;5092807;28;20075;-80
2022/01/14 12:51:46;;;;;;;44.42;25.75;;;8.70;99.90;;;;;;5092730;28;20123;-77
2022/01/14 12:54:12;;;;;;;43.75;26.45;;;8.70;99.90;;;;;;5092677;28;20107;-79
2022/01/14 12:56:39;;;;;;;44.50;24.38;;;8.70;99.90;;;;;;5092814;28;20115;-78
2022/01/14 12:59:06;;;;;;;40.05;25.50;;;8.80;99.90;;;;;;5092200;28;20032;-79
2022/01/14 13:01:40;;;;;;;44.10;25.88;;;8.90;99.90;;;;;;5092762;28;20044;-79